sensor_id;sensor_type;location;lat;lon;timestamp;temperature;humidity
62581;DHT22;48640;48.770;9.148;2024-01-07T00:00:37;6.40;99.90
62581;DHT22;48640;48.770;9.148;2024-01-07T00:03:04;6.40;99.90
62581;DHT22;48640;48.770;9.148;2024-01-07T00:05:32;6.40;99.90
62581;DHT22;48640;48.770;9.148;2024-01-07T00:07:59;6.30;99.90
62581;DHT22;48640;48.770;9.148;2024-01-07T00:10:26;6.30;99.90
62581;DHT22;48640;48.770;9.148;2024-01-07T00:12:53;6.30;99.90
62581;DHT22;48640;48.770;9.148;2024-01-07T00:15:20;6.20;99.90
62581;DHT22;48640;48.770;9.148;2024-01-07T00:17:47;6.20;99.90
62581;DHT22;48640;48.770;9.148;2024-01-07T00:20:14;6.20;99.90
62581;DHT22;48640;48.770;9.148;2024-01-07T00:22:42;6.30;99.90
62581;DHT22;48640;48.770;9.148;2024-01-07T00:25:09;6.20;99.90
62581;DHT22;48640;48.770;9.148;2024-01-07T00:27:36;6.20;99.90
62581;DHT22;48640;48.770;9.148;2024-01-07T00:30:03;6.20;99.90
62581;DHT22;48640;48.770;9.148;2024-01-07T00:32:30;6.30;99.90
62581;DHT22;48640;48.770;9.148;2024-01-07T00:34:57;6.30;99.90
62581;DHT22;48640;48.770;9.148;2024-01-07T00:37:24;6.20;99.90
62581;DHT22;48640;48.770;9.148;2024-01-07T00:39:53;6.10;99.90
62581;DHT22;48640;48.770;9.148;2024-01-07T00:42:21;6.20;99.90
62581;DHT22;48640;48.770;9.148;2024-01-07T00:44:48;6.30;99.90
62581;DHT22;48640;48.770;9.148;2024-01-07T00:47:15;6.10;99.90
62581;DHT22;48640;48.770;9.148;2024-01-07T00:49:42;6.40;99.90
62581;DHT22;48640;48.770;9.148;2024-01-07T00:52:09;6.40;99.90
62581;DHT22;48640;48.770;9.148;2024-01-07T00:54:36;6.40;99.90
62581;DHT22;48640;48.770;9.148;2024-01-07T00:57:06;6.30;99.90
62581;DHT22;48640;48.770;9.148;2024-01-07T00:59:32;6.40;99.90
62581;DHT22;48640;48.770;9.148;2024-01-07T01:01:59;6.30;99.90
62581;DHT22;48640;48.770;9.148;2024-01-07T01:04:28;5.60;99.90
62581;DHT22;48640;48.770;9.148;2024-01-07T01:06:55;6.40;99.90
62581;DHT22;48640;48.770;9.148;2024-01-07T01:09:22;6.30;99.90
62581;DHT22;48640;48.770;9.148;2024-01-07T01:11:49;6.30;99.90
62581;DHT22;48640;48.770;9.148;2024-01-07T01:14:18;6.20;99.90
62581;DHT22;48640;48.770;9.148;2024-01-07T01:16:45;6.10;99.90
62581;DHT22;48640;48.770;9.148;2024-01-07T01:19:11;6.10;99.90
62581;DHT22;48640;48.770;9.148;2024-01-07T01:21:38;6.10;99.90
62581;DHT22;48640;48.770;9.148;2024-01-07T01:24:05;6.20;99.90
62581;DHT22;48640;48.770;9.148;2024-01-07T01:26:32;6.10;99.90
62581;DHT22;48640;48.770;9.148;2024-01-07T01:28:59;6.10;99.90
62581;DHT22;48640;48.770;9.148;2024-01-07T01:31:27;6.10;99.90
62581;DHT22;48640;48.770;9.148;2024-01-07T01:33:55;6.10;99.90
62581;DHT22;48640;48.770;9.148;2024-01-07T01:36:22;6.20;99.90
62581;DHT22;48640;48.770;9.148;2024-01-07T01:38:49;6.20;99.90
62581;DHT22;48640;48.770;9.148;2024-01-07T01:41:18;6.10;99.90
62581;DHT22;48640;48.770;9.148;2024-01-07T01:43:45;6.10;99.90
62581;DHT22;48640;48.770;9.148;2024-01-07T01:46:13;6.00;99.90
62581;DHT22;48640;48.770;9.148;2024-01-07T01:48:42;6.00;99.90
62581;DHT22;48640;48.770;9.148;2024-01-07T01:51:10;6.10;99.90
62581;DHT22;48640;48.770;9.148;2024-01-07T01:53:38;6.10;99.90
62581;DHT22;48640;48.770;9.148;2024-01-07T01:56:05;6.10;99.90
62581;DHT22;48640;48.770;9.148;2024-01-07T01:58:32;6.00;99.90
62581;DHT22;48640;48.770;9.148;2024-01-07T02:00:59;5.90;99.90
62581;DHT22;48640;48.770;9.148;2024-01-07T02:03:26;6.20;99.90
62581;DHT22;48640;48.770;9.148;2024-01-07T02:05:55;6.00;99.90
62581;DHT22;48640;48.770;9.148;2024-01-07T02:08:23;5.70;99.90
62581;DHT22;48640;48.770;9.148;2024-01-07T02:10:51;6.00;99.90
62581;DHT22;48640;48.770;9.148;2024-01-07T02:13:17;6.00;99.90
62581;DHT22;48640;48.770;9.148;2024-01-07T02:15:44;6.00;99.90
62581;DHT22;48640;48.770;9.148;2024-01-07T02:18:13;5.90;99.90
62581;DHT22;48640;48.770;9.148;2024-01-07T02:20:40;5.90;99.90
62581;DHT22;48640;48.770;9.148;2024-01-07T02:23:08;6.00;99.90
62581;DHT22;48640;48.770;9.148;2024-01-07T02:25:37;6.00;99.90
62581;DHT22;48640;48.770;9.148;2024-01-07T02:28:04;5.90;99.90
62581;DHT22;48640;48.770;9.148;2024-01-07T02:30:31;5.90;99.90
62581;DHT22;48640;48.770;9.148;2024-01-07T02:33:01;6.00;99.90
62581;DHT22;48640;48.770;9.148;2024-01-07T02:35:30;5.90;99.90
62581;DHT22;48640;48.770;9.148;2024-01-07T02:37:56;5.90;99.90
62581;DHT22;48640;48.770;9.148;2024-01-07T02:40:24;5.80;99.90
62581;DHT22;48640;48.770;9.148;2024-01-07T02:42:52;5.90;99.90
62581;DHT22;48640;48.770;9.148;2024-01-07T02:45:21;5.90;99.90
62581;DHT22;48640;48.770;9.148;2024-01-07T02:47:48;5.90;99.90
62581;DHT22;48640;48.770;9.148;2024-01-07T02:50:15;5.90;99.90
62581;DHT22;48640;48.770;9.148;2024-01-07T02:52:42;5.90;99.90
62581;DHT22;48640;48.770;9.148;2024-01-07T02:55:09;5.90;99.90
62581;DHT22;48640;48.770;9.148;2024-01-07T02:57:36;5.90;99.90
62581;DHT22;48640;48.770;9.148;2024-01-07T03:00:06;6.00;99.90
62581;DHT22;48640;48.770;9.148;2024-01-07T03:02:33;6.00;99.90
62581;DHT22;48640;48.770;9.148;2024-01-07T03:05:00;6.50;99.90
62581;DHT22;48640;48.770;9.148;2024-01-07T03:07:27;6.00;99.90
62581;DHT22;48640;48.770;9.148;2024-01-07T03:09:54;6.00;99.90
62581;DHT22;48640;48.770;9.148;2024-01-07T03:12:21;5.90;99.90
62581;DHT22;48640;48.770;9.148;2024-01-07T03:14:48;5.90;99.90
62581;DHT22;48640;48.770;9.148;2024-01-07T03:17:16;5.80;99.90
62581;DHT22;48640;48.770;9.148;2024-01-07T03:19:43;5.90;99.90
62581;DHT22;48640;48.770;9.148;2024-01-07T03:22:10;5.90;99.90
62581;DHT22;48640;48.770;9.148;2024-01-07T03:24:36;6.00;99.90
62581;DHT22;48640;48.770;9.148;2024-01-07T03:27:04;5.90;99.90
62581;DHT22;48640;48.770;9.148;2024-01-07T03:29:31;5.90;99.90
62581;DHT22;48640;48.770;9.148;2024-01-07T03:31:58;5.90;99.90
62581;DHT22;48640;48.770;9.148;2024-01-07T03:34:26;5.90;99.90
62581;DHT22;48640;48.770;9.148;2024-01-07T03:36:53;5.90;99.90
62581;DHT22;48640;48.770;9.148;2024-01-07T03:39:20;5.90;99.90
62581;DHT22;48640;48.770;9.148;2024-01-07T03:41:47;5.90;99.90
62581;DHT22;48640;48.770;9.148;2024-01-07T03:44:13;5.90;99.90
62581;DHT22;48640;48.770;9.148;2024-01-07T03:46:40;5.80;99.90
62581;DHT22;48640;48.770;9.148;2024-01-07T03:49:07;5.90;99.90
62581;DHT22;48640;48.770;9.148;2024-01-07T03:51:35;6.00;99.90
62581;DHT22;48640;48.770;9.148;2024-01-07T03:54:02;5.90;99.90
62581;DHT22;48640;48.770;9.148;2024-01-07T03:56:29;5.90;99.90
62581;DHT22;48640;48.770;9.148;2024-01-07T03:58:56;5.90;99.90
62581;DHT22;48640;48.770;9.148;2024-01-07T04:01:23;5.90;99.90
62581;DHT22;48640;48.770;9.148;2024-01-07T04:03:50;5.90;99.90
62581;DHT22;48640;48.770;9.148;2024-01-07T04:06:17;5.80;99.90
62581;DHT22;48640;48.770;9.148;2024-01-07T04:08:45;5.80;99.90
62581;DHT22;48640;48.770;9.148;2024-01-07T04:11:12;5.80;99.90
62581;DHT22;48640;48.770;9.148;2024-01-07T04:13:39;5.80;99.90
62581;DHT22;48640;48.770;9.148;2024-01-07T04:16:15;5.80;99.90
62581;DHT22;48640;48.770;9.148;2024-01-07T04:18:42;5.80;99.90
62581;DHT22;48640;48.770;9.148;2024-01-07T04:21:09;5.80;99.90
62581;DHT22;48640;48.770;9.148;2024-01-07T04:23:36;5.80;99.90
62581;DHT22;48640;48.770;9.148;2024-01-07T04:26:04;5.70;99.90
62581;DHT22;48640;48.770;9.148;2024-01-07T04:28:31;5.70;99.90
62581;DHT22;48640;48.770;9.148;2024-01-07T04:30:58;5.70;99.90
62581;DHT22;48640;48.770;9.148;2024-01-07T04:33:25;5.80;99.90
62581;DHT22;48640;48.770;9.148;2024-01-07T04:35:52;5.70;99.90
62581;DHT22;48640;48.770;9.148;2024-01-07T04:38:23;5.70;99.90
62581;DHT22;48640;48.770;9.148;2024-01-07T04:40:50;5.70;99.90
62581;DHT22;48640;48.770;9.148;2024-01-07T04:43:18;5.80;99.90
62581;DHT22;48640;48.770;9.148;2024-01-07T04:45:45;5.80;99.90
62581;DHT22;48640;48.770;9.148;2024-01-07T04:48:12;5.70;99.90
62581;DHT22;48640;48.770;9.148;2024-01-07T04:50:39;5.70;99.90
62581;DHT22;48640;48.770;9.148;2024-01-07T04:53:07;5.70;99.90
62581;DHT22;48640;48.770;9.148;2024-01-07T04:55:34;5.60;99.90
62581;DHT22;48640;48.770;9.148;2024-01-07T04:58:00;5.60;99.90
62581;DHT22;48640;48.770;9.148;2024-01-07T05:00:28;5.70;99.90
62581;DHT22;48640;48.770;9.148;2024-01-07T05:02:55;5.70;99.90
62581;DHT22;48640;48.770;9.148;2024-01-07T05:05:22;5.80;99.90
62581;DHT22;48640;48.770;9.148;2024-01-07T05:07:49;5.80;99.90
62581;DHT22;48640;48.770;9.148;2024-01-07T05:10:16;5.80;99.90
62581;DHT22;48640;48.770;9.148;2024-01-07T05:12:42;5.80;99.90
62581;DHT22;48640;48.770;9.148;2024-01-07T05:15:09;5.70;99.90
62581;DHT22;48640;48.770;9.148;2024-01-07T05:17:38;5.70;99.90
62581;DHT22;48640;48.770;9.148;2024-01-07T05:20:06;5.80;99.90
62581;DHT22;48640;48.770;9.148;2024-01-07T05:22:33;8.40;99.90
62581;DHT22;48640;48.770;9.148;2024-01-07T05:25:00;5.60;99.90
62581;DHT22;48640;48.770;9.148;2024-01-07T05:27:27;5.70;99.90
62581;DHT22;48640;48.770;9.148;2024-01-07T05:29:54;5.70;99.90
62581;DHT22;48640;48.770;9.148;2024-01-07T05:32:21;5.70;99.90
62581;DHT22;48640;48.770;9.148;2024-01-07T05:34:50;5.70;99.90
62581;DHT22;48640;48.770;9.148;2024-01-07T05:37:17;5.70;99.90
62581;DHT22;48640;48.770;9.148;2024-01-07T05:39:44;5.80;99.90
62581;DHT22;48640;48.770;9.148;2024-01-07T05:42:12;5.90;99.90
62581;DHT22;48640;48.770;9.148;2024-01-07T05:44:39;5.70;99.90
62581;DHT22;48640;48.770;9.148;2024-01-07T05:47:06;5.80;99.90
62581;DHT22;48640;48.770;9.148;2024-01-07T05:49:33;5.90;99.90
62581;DHT22;48640;48.770;9.148;2024-01-07T05:52:01;5.80;99.90
62581;DHT22;48640;48.770;9.148;2024-01-07T05:54:28;5.80;99.90
62581;DHT22;48640;48.770;9.148;2024-01-07T05:56:55;5.70;99.90
62581;DHT22;48640;48.770;9.148;2024-01-07T05:59:22;5.70;99.90
62581;DHT22;48640;48.770;9.148;2024-01-07T06:01:49;5.80;99.90
62581;DHT22;48640;48.770;9.148;2024-01-07T06:04:16;5.60;99.90
62581;DHT22;48640;48.770;9.148;2024-01-07T06:06:42;5.70;99.90
62581;DHT22;48640;48.770;9.148;2024-01-07T06:09:11;5.70;99.90
62581;DHT22;48640;48.770;9.148;2024-01-07T06:11:38;5.70;99.90
62581;DHT22;48640;48.770;9.148;2024-01-07T06:14:04;5.70;99.90
62581;DHT22;48640;48.770;9.148;2024-01-07T06:16:31;5.80;99.90
62581;DHT22;48640;48.770;9.148;2024-01-07T06:18:58;5.80;99.90
62581;DHT22;48640;48.770;9.148;2024-01-07T06:21:25;5.80;99.90
62581;DHT22;48640;48.770;9.148;2024-01-07T06:23:52;5.70;99.90
62581;DHT22;48640;48.770;9.148;2024-01-07T06:26:20;5.60;99.90
62581;DHT22;48640;48.770;9.148;2024-01-07T06:28:47;5.70;99.90
62581;DHT22;48640;48.770;9.148;2024-01-07T06:31:16;5.70;99.90
62581;DHT22;48640;48.770;9.148;2024-01-07T06:33:43;5.70;99.90
62581;DHT22;48640;48.770;9.148;2024-01-07T06:36:10;5.70;99.90
62581;DHT22;48640;48.770;9.148;2024-01-07T06:38:38;5.70;99.90
62581;DHT22;48640;48.770;9.148;2024-01-07T06:41:05;5.70;99.90
62581;DHT22;48640;48.770;9.148;2024-01-07T06:43:34;5.70;99.90
62581;DHT22;48640;48.770;9.148;2024-01-07T06:46:00;5.70;99.90
62581;DHT22;48640;48.770;9.148;2024-01-07T06:48:28;5.70;99.90
62581;DHT22;48640;48.770;9.148;2024-01-07T06:50:54;5.70;99.90
62581;DHT22;48640;48.770;9.148;2024-01-07T06:53:21;5.70;99.90
62581;DHT22;48640;48.770;9.148;2024-01-07T06:55:48;5.60;99.90
62581;DHT22;48640;48.770;9.148;2024-01-07T06:58:15;5.60;99.90
62581;DHT22;48640;48.770;9.148;2024-01-07T07:00:43;5.50;99.90
62581;DHT22;48640;48.770;9.148;2024-01-07T07:03:10;5.50;99.90
62581;DHT22;48640;48.770;9.148;2024-01-07T07:05:38;5.60;99.90
62581;DHT22;48640;48.770;9.148;2024-01-07T07:08:05;5.60;99.90
62581;DHT22;48640;48.770;9.148;2024-01-07T07:10:32;5.60;99.90
62581;DHT22;48640;48.770;9.148;2024-01-07T07:12:59;5.60;99.90
62581;DHT22;48640;48.770;9.148;2024-01-07T07:15:26;5.50;99.90
62581;DHT22;48640;48.770;9.148;2024-01-07T07:17:55;5.50;99.90
62581;DHT22;48640;48.770;9.148;2024-01-07T07:20:22;5.50;99.90
62581;DHT22;48640;48.770;9.148;2024-01-07T07:22:49;5.40;99.90
62581;DHT22;48640;48.770;9.148;2024-01-07T07:25:16;5.50;99.90
62581;DHT22;48640;48.770;9.148;2024-01-07T07:27:43;5.40;99.90
62581;DHT22;48640;48.770;9.148;2024-01-07T07:30:10;5.50;99.90
62581;DHT22;48640;48.770;9.148;2024-01-07T07:32:39;5.40;99.90
62581;DHT22;48640;48.770;9.148;2024-01-07T07:35:09;5.40;99.90
62581;DHT22;48640;48.770;9.148;2024-01-07T07:37:35;5.40;99.90
62581;DHT22;48640;48.770;9.148;2024-01-07T07:40:04;5.90;99.90
62581;DHT22;48640;48.770;9.148;2024-01-07T07:42:31;5.30;99.90
62581;DHT22;48640;48.770;9.148;2024-01-07T07:44:58;5.30;99.90
62581;DHT22;48640;48.770;9.148;2024-01-07T07:47:25;5.20;99.90
62581;DHT22;48640;48.770;9.148;2024-01-07T07:49:52;5.20;99.90
62581;DHT22;48640;48.770;9.148;2024-01-07T07:52:20;5.20;99.90
62581;DHT22;48640;48.770;9.148;2024-01-07T07:54:51;5.10;99.90
62581;DHT22;48640;48.770;9.148;2024-01-07T07:57:18;5.00;99.90
62581;DHT22;48640;48.770;9.148;2024-01-07T07:59:46;4.90;99.90
62581;DHT22;48640;48.770;9.148;2024-01-07T08:02:12;4.90;99.90
62581;DHT22;48640;48.770;9.148;2024-01-07T08:04:39;5.00;99.90
62581;DHT22;48640;48.770;9.148;2024-01-07T08:07:07;4.90;99.90
62581;DHT22;48640;48.770;9.148;2024-01-07T08:09:36;4.90;99.90
62581;DHT22;48640;48.770;9.148;2024-01-07T08:12:04;4.90;99.90
62581;DHT22;48640;48.770;9.148;2024-01-07T08:14:33;4.90;99.90
62581;DHT22;48640;48.770;9.148;2024-01-07T08:17:01;5.00;99.90
62581;DHT22;48640;48.770;9.148;2024-01-07T08:19:30;4.90;99.90
62581;DHT22;48640;48.770;9.148;2024-01-07T08:21:57;4.80;99.90
62581;DHT22;48640;48.770;9.148;2024-01-07T08:24:23;4.90;99.90
62581;DHT22;48640;48.770;9.148;2024-01-07T08:26:52;4.90;99.90
62581;DHT22;48640;48.770;9.148;2024-01-07T08:29:19;4.90;99.90
62581;DHT22;48640;48.770;9.148;2024-01-07T08:31:46;5.00;99.90
62581;DHT22;48640;48.770;9.148;2024-01-07T08:34:13;4.90;99.90
62581;DHT22;48640;48.770;9.148;2024-01-07T08:36:41;5.00;99.90
62581;DHT22;48640;48.770;9.148;2024-01-07T08:39:08;5.00;99.90
62581;DHT22;48640;48.770;9.148;2024-01-07T08:41:35;4.90;99.90
62581;DHT22;48640;48.770;9.148;2024-01-07T08:44:04;4.80;99.90
62581;DHT22;48640;48.770;9.148;2024-01-07T08:46:31;4.80;99.90
62581;DHT22;48640;48.770;9.148;2024-01-07T08:48:58;4.90;99.90
62581;DHT22;48640;48.770;9.148;2024-01-07T08:51:24;4.90;99.90
62581;DHT22;48640;48.770;9.148;2024-01-07T08:53:51;5.00;99.90
62581;DHT22;48640;48.770;9.148;2024-01-07T08:56:18;5.00;99.90
62581;DHT22;48640;48.770;9.148;2024-01-07T08:58:46;4.90;99.90
62581;DHT22;48640;48.770;9.148;2024-01-07T09:01:15;4.90;99.90
62581;DHT22;48640;48.770;9.148;2024-01-07T09:03:41;4.90;99.90
62581;DHT22;48640;48.770;9.148;2024-01-07T09:06:09;4.90;99.90
62581;DHT22;48640;48.770;9.148;2024-01-07T09:08:35;4.90;99.90
62581;DHT22;48640;48.770;9.148;2024-01-07T09:11:03;4.90;99.90
62581;DHT22;48640;48.770;9.148;2024-01-07T09:13:32;5.00;99.90
62581;DHT22;48640;48.770;9.148;2024-01-07T09:15:58;4.90;99.90
62581;DHT22;48640;48.770;9.148;2024-01-07T09:18:27;5.00;99.90
62581;DHT22;48640;48.770;9.148;2024-01-07T09:20:54;5.10;99.90
62581;DHT22;48640;48.770;9.148;2024-01-07T09:23:20;5.20;99.90
62581;DHT22;48640;48.770;9.148;2024-01-07T09:25:47;5.10;99.90
62581;DHT22;48640;48.770;9.148;2024-01-07T09:28:15;5.20;99.10
62581;DHT22;48640;48.770;9.148;2024-01-07T09:30:41;4.90;99.30
62581;DHT22;48640;48.770;9.148;2024-01-07T09:33:08;4.90;99.90
62581;DHT22;48640;48.770;9.148;2024-01-07T09:35:37;4.90;99.50
62581;DHT22;48640;48.770;9.148;2024-01-07T09:38:04;4.80;99.70
62581;DHT22;48640;48.770;9.148;2024-01-07T09:40:31;4.90;99.90
62581;DHT22;48640;48.770;9.148;2024-01-07T09:42:58;4.80;99.60
62581;DHT22;48640;48.770;9.148;2024-01-07T09:45:25;4.80;99.40
62581;DHT22;48640;48.770;9.148;2024-01-07T09:47:52;4.70;99.10
62581;DHT22;48640;48.770;9.148;2024-01-07T09:50:19;4.80;99.70
62581;DHT22;48640;48.770;9.148;2024-01-07T09:52:48;4.90;99.90
62581;DHT22;48640;48.770;9.148;2024-01-07T09:55:22;5.10;99.70
62581;DHT22;48640;48.770;9.148;2024-01-07T09:57:52;5.20;98.20
62581;DHT22;48640;48.770;9.148;2024-01-07T10:00:20;5.10;98.90
62581;DHT22;48640;48.770;9.148;2024-01-07T10:02:47;5.10;99.20
62581;DHT22;48640;48.770;9.148;2024-01-07T10:05:14;5.00;98.80
62581;DHT22;48640;48.770;9.148;2024-01-07T10:07:41;4.70;98.60
62581;DHT22;48640;48.770;9.148;2024-01-07T10:10:14;4.60;98.60
62581;DHT22;48640;48.770;9.148;2024-01-07T10:12:44;4.60;98.80
62581;DHT22;48640;48.770;9.148;2024-01-07T10:15:11;4.60;99.30
62581;DHT22;48640;48.770;9.148;2024-01-07T10:17:39;4.60;99.50
62581;DHT22;48640;48.770;9.148;2024-01-07T10:20:08;4.80;99.80
62581;DHT22;48640;48.770;9.148;2024-01-07T10:22:36;4.70;99.30
62581;DHT22;48640;48.770;9.148;2024-01-07T10:25:04;4.70;99.30
62581;DHT22;48640;48.770;9.148;2024-01-07T10:27:35;4.60;99.90
62581;DHT22;48640;48.770;9.148;2024-01-07T10:30:02;4.70;99.40
62581;DHT22;48640;48.770;9.148;2024-01-07T10:32:29;4.80;99.60
62581;DHT22;48640;48.770;9.148;2024-01-07T10:35:01;4.80;99.40
62581;DHT22;48640;48.770;9.148;2024-01-07T10:37:28;4.80;99.30
62581;DHT22;48640;48.770;9.148;2024-01-07T10:39:58;4.80;99.60
62581;DHT22;48640;48.770;9.148;2024-01-07T10:42:29;4.80;99.20
62581;DHT22;48640;48.770;9.148;2024-01-07T10:44:59;4.80;99.40
62581;DHT22;48640;48.770;9.148;2024-01-07T10:47:29;4.70;98.10
62581;DHT22;48640;48.770;9.148;2024-01-07T10:49:58;4.30;98.60
62581;DHT22;48640;48.770;9.148;2024-01-07T10:52:27;4.30;99.60
62581;DHT22;48640;48.770;9.148;2024-01-07T10:54:56;4.40;99.60
62581;DHT22;48640;48.770;9.148;2024-01-07T10:57:27;4.50;98.50
62581;DHT22;48640;48.770;9.148;2024-01-07T10:59:58;4.60;98.80
62581;DHT22;48640;48.770;9.148;2024-01-07T11:02:26;4.50;97.80
62581;DHT22;48640;48.770;9.148;2024-01-07T11:05:00;4.50;98.20
62581;DHT22;48640;48.770;9.148;2024-01-07T11:07:35;4.30;97.40
62581;DHT22;48640;48.770;9.148;2024-01-07T11:10:08;4.30;98.40
62581;DHT22;48640;48.770;9.148;2024-01-07T11:12:37;4.40;98.50
62581;DHT22;48640;48.770;9.148;2024-01-07T11:15:06;4.50;98.40
62581;DHT22;48640;48.770;9.148;2024-01-07T11:17:40;4.50;98.00
62581;DHT22;48640;48.770;9.148;2024-01-07T11:20:14;4.30;98.00
62581;DHT22;48640;48.770;9.148;2024-01-07T11:22:44;4.30;98.60
62581;DHT22;48640;48.770;9.148;2024-01-07T11:25:36;4.40;98.30
62581;DHT22;48640;48.770;9.148;2024-01-07T11:28:05;4.50;98.00
62581;DHT22;48640;48.770;9.148;2024-01-07T11:30:38;4.60;97.80
62581;DHT22;48640;48.770;9.148;2024-01-07T11:33:06;4.50;97.60
62581;DHT22;48640;48.770;9.148;2024-01-07T11:35:55;4.50;97.70
62581;DHT22;48640;48.770;9.148;2024-01-07T11:38:23;4.60;97.40
62581;DHT22;48640;48.770;9.148;2024-01-07T11:40:51;4.60;97.70
62581;DHT22;48640;48.770;9.148;2024-01-07T11:43:18;4.50;98.10
62581;DHT22;48640;48.770;9.148;2024-01-07T11:45:51;4.50;98.10
62581;DHT22;48640;48.770;9.148;2024-01-07T11:48:20;4.50;98.20
62581;DHT22;48640;48.770;9.148;2024-01-07T11:50:47;4.40;97.50
62581;DHT22;48640;48.770;9.148;2024-01-07T11:53:14;4.60;97.30
62581;DHT22;48640;48.770;9.148;2024-01-07T11:55:42;4.40;97.80
62581;DHT22;48640;48.770;9.148;2024-01-07T11:58:09;4.40;97.70
62581;DHT22;48640;48.770;9.148;2024-01-07T12:00:36;4.30;98.30
62581;DHT22;48640;48.770;9.148;2024-01-07T12:03:12;4.30;98.30
62581;DHT22;48640;48.770;9.148;2024-01-07T12:05:39;4.40;98.10
62581;DHT22;48640;48.770;9.148;2024-01-07T12:08:06;4.40;97.30
62581;DHT22;48640;48.770;9.148;2024-01-07T12:10:33;4.30;97.60
62581;DHT22;48640;48.770;9.148;2024-01-07T12:13:02;4.20;98.00
62581;DHT22;48640;48.770;9.148;2024-01-07T12:15:29;4.20;97.80
62581;DHT22;48640;48.770;9.148;2024-01-07T12:17:57;4.00;97.90
62581;DHT22;48640;48.770;9.148;2024-01-07T12:20:27;4.10;98.10
62581;DHT22;48640;48.770;9.148;2024-01-07T12:23:05;4.10;98.10
62581;DHT22;48640;48.770;9.148;2024-01-07T12:25:32;4.10;97.90
62581;DHT22;48640;48.770;9.148;2024-01-07T12:27:59;4.10;98.00
62581;DHT22;48640;48.770;9.148;2024-01-07T12:30:26;4.00;98.30
62581;DHT22;48640;48.770;9.148;2024-01-07T12:32:54;3.90;98.80
62581;DHT22;48640;48.770;9.148;2024-01-07T12:35:21;4.00;98.50
62581;DHT22;48640;48.770;9.148;2024-01-07T12:37:53;3.90;98.30
62581;DHT22;48640;48.770;9.148;2024-01-07T12:40:22;3.80;99.00
62581;DHT22;48640;48.770;9.148;2024-01-07T12:42:50;3.80;99.30
62581;DHT22;48640;48.770;9.148;2024-01-07T12:45:18;4.00;99.70
62581;DHT22;48640;48.770;9.148;2024-01-07T12:47:45;4.10;99.40
62581;DHT22;48640;48.770;9.148;2024-01-07T12:50:13;4.10;99.00
62581;DHT22;48640;48.770;9.148;2024-01-07T12:52:41;4.10;98.60
62581;DHT22;48640;48.770;9.148;2024-01-07T12:55:10;4.20;98.80
62581;DHT22;48640;48.770;9.148;2024-01-07T12:57:37;4.10;98.80
62581;DHT22;48640;48.770;9.148;2024-01-07T13:00:06;4.00;99.00
62581;DHT22;48640;48.770;9.148;2024-01-07T13:02:34;3.90;98.50
62581;DHT22;48640;48.770;9.148;2024-01-07T13:05:01;3.80;98.70
62581;DHT22;48640;48.770;9.148;2024-01-07T13:07:29;3.70;99.20
62581;DHT22;48640;48.770;9.148;2024-01-07T13:09:57;3.80;99.10
62581;DHT22;48640;48.770;9.148;2024-01-07T13:12:25;3.90;98.70
62581;DHT22;48640;48.770;9.148;2024-01-07T13:14:52;3.70;98.50
62581;DHT22;48640;48.770;9.148;2024-01-07T13:17:20;3.70;98.80
62581;DHT22;48640;48.770;9.148;2024-01-07T13:19:49;3.80;98.30
62581;DHT22;48640;48.770;9.148;2024-01-07T13:22:16;3.80;98.80
62581;DHT22;48640;48.770;9.148;2024-01-07T13:24:42;3.70;99.30
62581;DHT22;48640;48.770;9.148;2024-01-07T13:27:11;3.70;99.20
62581;DHT22;48640;48.770;9.148;2024-01-07T13:29:40;3.80;98.90
62581;DHT22;48640;48.770;9.148;2024-01-07T13:32:07;3.70;99.20
62581;DHT22;48640;48.770;9.148;2024-01-07T13:34:34;3.70;99.30
62581;DHT22;48640;48.770;9.148;2024-01-07T13:37:01;3.60;99.40
62581;DHT22;48640;48.770;9.148;2024-01-07T13:39:31;3.60;99.20
62581;DHT22;48640;48.770;9.148;2024-01-07T13:41:57;3.50;99.30
62581;DHT22;48640;48.770;9.148;2024-01-07T13:44:24;3.60;98.90
62581;DHT22;48640;48.770;9.148;2024-01-07T13:46:53;3.60;98.00
62581;DHT22;48640;48.770;9.148;2024-01-07T13:49:20;3.50;98.40
62581;DHT22;48640;48.770;9.148;2024-01-07T13:51:47;3.40;98.20
62581;DHT22;48640;48.770;9.148;2024-01-07T13:54:15;3.40;98.00
62581;DHT22;48640;48.770;9.148;2024-01-07T13:56:45;3.40;98.40
62581;DHT22;48640;48.770;9.148;2024-01-07T13:59:14;3.40;98.40
62581;DHT22;48640;48.770;9.148;2024-01-07T14:01:44;3.40;98.50
62581;DHT22;48640;48.770;9.148;2024-01-07T14:04:12;3.40;98.50
62581;DHT22;48640;48.770;9.148;2024-01-07T14:06:40;3.50;98.40
62581;DHT22;48640;48.770;9.148;2024-01-07T14:09:09;3.50;98.00
62581;DHT22;48640;48.770;9.148;2024-01-07T14:11:36;3.50;97.70
62581;DHT22;48640;48.770;9.148;2024-01-07T14:14:04;3.30;98.20
62581;DHT22;48640;48.770;9.148;2024-01-07T14:16:30;3.30;98.40
62581;DHT22;48640;48.770;9.148;2024-01-07T14:18:57;3.30;98.60
62581;DHT22;48640;48.770;9.148;2024-01-07T14:21:27;3.30;98.20
62581;DHT22;48640;48.770;9.148;2024-01-07T14:23:55;3.40;97.70
62581;DHT22;48640;48.770;9.148;2024-01-07T14:26:22;3.30;97.70
62581;DHT22;48640;48.770;9.148;2024-01-07T14:28:49;3.20;98.20
62581;DHT22;48640;48.770;9.148;2024-01-07T14:31:17;3.20;98.50
62581;DHT22;48640;48.770;9.148;2024-01-07T14:33:43;3.20;98.80
62581;DHT22;48640;48.770;9.148;2024-01-07T14:36:10;3.20;97.90
62581;DHT22;48640;48.770;9.148;2024-01-07T14:38:43;3.10;98.00
62581;DHT22;48640;48.770;9.148;2024-01-07T14:41:11;3.10;98.00
62581;DHT22;48640;48.770;9.148;2024-01-07T14:43:38;3.10;98.90
62581;DHT22;48640;48.770;9.148;2024-01-07T14:46:06;3.10;99.40
62581;DHT22;48640;48.770;9.148;2024-01-07T14:48:33;3.00;98.90
62581;DHT22;48640;48.770;9.148;2024-01-07T14:51:00;2.80;99.00
62581;DHT22;48640;48.770;9.148;2024-01-07T14:53:28;2.50;99.50
62581;DHT22;48640;48.770;9.148;2024-01-07T14:55:56;2.50;99.90
62581;DHT22;48640;48.770;9.148;2024-01-07T14:58:23;2.60;99.80
62581;DHT22;48640;48.770;9.148;2024-01-07T15:00:50;2.70;99.80
62581;DHT22;48640;48.770;9.148;2024-01-07T15:03:17;2.70;99.90
62581;DHT22;48640;48.770;9.148;2024-01-07T15:05:45;2.70;99.90
62581;DHT22;48640;48.770;9.148;2024-01-07T15:08:12;2.70;99.70
62581;DHT22;48640;48.770;9.148;2024-01-07T15:10:40;2.60;99.80
62581;DHT22;48640;48.770;9.148;2024-01-07T15:13:09;2.50;99.90
62581;DHT22;48640;48.770;9.148;2024-01-07T15:15:36;2.50;99.60
62581;DHT22;48640;48.770;9.148;2024-01-07T15:18:03;2.40;99.90
62581;DHT22;48640;48.770;9.148;2024-01-07T15:20:31;2.50;99.90
62581;DHT22;48640;48.770;9.148;2024-01-07T15:22:57;2.40;99.30
62581;DHT22;48640;48.770;9.148;2024-01-07T15:25:25;2.50;99.30
62581;DHT22;48640;48.770;9.148;2024-01-07T15:31:09;2.30;99.70
62581;DHT22;48640;48.770;9.148;2024-01-07T15:33:36;2.20;99.90
62581;DHT22;48640;48.770;9.148;2024-01-07T15:36:04;2.20;99.90
62581;DHT22;48640;48.770;9.148;2024-01-07T15:38:31;2.30;99.90
62581;DHT22;48640;48.770;9.148;2024-01-07T15:40:58;2.30;99.90
62581;DHT22;48640;48.770;9.148;2024-01-07T15:43:25;2.40;99.90
62581;DHT22;48640;48.770;9.148;2024-01-07T15:45:52;2.30;99.90
62581;DHT22;48640;48.770;9.148;2024-01-07T15:48:20;2.30;99.90
62581;DHT22;48640;48.770;9.148;2024-01-07T15:50:47;2.20;99.90